sensor_id;sensor_type;location;lat;lon;timestamp;pressure;altitude;pressure_sealevel;temperature;humidity
34925;BME280;21130;51.728;8.748;2022-12-29T00:01:50;99227.00;;;9.41;100.00
34925;BME280;21130;51.728;8.748;2022-12-29T00:04:17;99212.34;;;9.46;100.00
34925;BME280;21130;51.728;8.748;2022-12-29T00:06:45;99215.16;;;9.56;100.00
34925;BME280;21130;51.728;8.748;2022-12-29T00:09:12;99208.50;;;9.57;100.00
34925;BME280;21130;51.728;8.748;2022-12-29T00:11:39;99210.47;;;9.62;100.00
34925;BME280;21130;51.728;8.748;2022-12-29T00:14:08;99199.97;;;9.64;100.00
34925;BME280;21130;51.728;8.748;2022-12-29T00:16:52;99215.50;;;9.75;100.00
34925;BME280;21130;51.728;8.748;2022-12-29T00:19:18;99217.16;;;9.71;100.00
34925;BME280;21130;51.728;8.748;2022-12-29T00:22:04;99182.81;;;9.77;100.00
34925;BME280;21130;51.728;8.748;2022-12-29T00:24:48;99217.22;;;9.81;100.00
34925;BME280;21130;51.728;8.748;2022-12-29T00:27:32;99210.00;;;9.85;100.00
34925;BME280;21130;51.728;8.748;2022-12-29T00:30:17;99193.94;;;9.87;100.00
34925;BME280;21130;51.728;8.748;2022-12-29T00:33:08;99193.94;;;9.87;100.00
34925;BME280;21130;51.728;8.748;2022-12-29T00:35:55;99186.19;;;9.94;100.00
34925;BME280;21130;51.728;8.748;2022-12-29T00:38:25;99182.59;;;9.94;100.00
34925;BME280;21130;51.728;8.748;2022-12-29T00:41:10;99185.38;;;9.94;100.00
34925;BME280;21130;51.728;8.748;2022-12-29T00:43:54;99179.28;;;9.97;100.00
34925;BME280;21130;51.728;8.748;2022-12-29T00:46:32;99181.50;;;9.95;100.00
34925;BME280;21130;51.728;8.748;2022-12-29T00:48:59;99168.75;;;10.04;100.00
34925;BME280;21130;51.728;8.748;2022-12-29T00:51:44;99170.41;;;10.05;100.00
34925;BME280;21130;51.728;8.748;2022-12-29T00:54:12;99163.47;;;10.03;100.00
34925;BME280;21130;51.728;8.748;2022-12-29T00:56:39;99172.66;;;10.03;100.00
34925;BME280;21130;51.728;8.748;2022-12-29T00:59:07;99169.88;;;10.03;100.00
34925;BME280;21130;51.728;8.748;2022-12-29T01:01:34;99160.19;;;10.06;100.00
34925;BME280;21130;51.728;8.748;2022-12-29T01:04:01;99158.81;;;10.08;100.00
34925;BME280;21130;51.728;8.748;2022-12-29T01:06:28;99160.19;;;10.11;100.00
34925;BME280;21130;51.728;8.748;2022-12-29T01:08:54;99161.03;;;10.16;100.00
34925;BME280;21130;51.728;8.748;2022-12-29T01:11:36;99156.56;;;10.21;100.00
34925;BME280;21130;51.728;8.748;2022-12-29T01:14:03;99154.94;;;10.20;100.00
34925;BME280;21130;51.728;8.748;2022-12-29T01:16:29;99141.63;;;10.22;100.00
34925;BME280;21130;51.728;8.748;2022-12-29T01:18:56;99154.38;;;10.23;100.00
34925;BME280;21130;51.728;8.748;2022-12-29T01:21:23;99149.66;;;10.23;100.00
34925;BME280;21130;51.728;8.748;2022-12-29T01:23:50;99148.81;;;10.23;100.00
34925;BME280;21130;51.728;8.748;2022-12-29T01:26:17;99146.06;;;10.23;100.00
34925;BME280;21130;51.728;8.748;2022-12-29T01:28:45;99141.63;;;10.27;100.00
34925;BME280;21130;51.728;8.748;2022-12-29T01:31:13;99129.97;;;10.25;100.00
34925;BME280;21130;51.728;8.748;2022-12-29T01:33:40;99124.44;;;10.25;100.00
34925;BME280;21130;51.728;8.748;2022-12-29T01:36:10;99128.31;;;10.24;100.00
34925;BME280;21130;51.728;8.748;2022-12-29T01:38:38;99127.75;;;10.27;100.00
34925;BME280;21130;51.728;8.748;2022-12-29T01:41:05;99127.22;;;10.30;100.00
34925;BME280;21130;51.728;8.748;2022-12-29T01:43:39;99111.13;;;10.27;100.00
34925;BME280;21130;51.728;8.748;2022-12-29T01:46:14;99117.81;;;10.31;100.00
34925;BME280;21130;51.728;8.748;2022-12-29T01:48:42;99116.13;;;10.30;100.00
34925;BME280;21130;51.728;8.748;2022-12-29T01:51:09;99100.88;;;10.32;100.00
34925;BME280;21130;51.728;8.748;2022-12-29T01:53:36;99105.03;;;10.40;100.00
34925;BME280;21130;51.728;8.748;2022-12-29T01:56:06;99106.16;;;10.44;100.00
34925;BME280;21130;51.728;8.748;2022-12-29T01:58:37;99108.38;;;10.52;100.00
34925;BME280;21130;51.728;8.748;2022-12-29T02:01:06;99103.38;;;10.54;100.00
34925;BME280;21130;51.728;8.748;2022-12-29T02:03:34;99093.66;;;10.57;100.00
34925;BME280;21130;51.728;8.748;2022-12-29T02:06:04;99096.16;;;10.58;100.00
34925;BME280;21130;51.728;8.748;2022-12-29T02:08:34;99094.50;;;10.57;100.00
34925;BME280;21130;51.728;8.748;2022-12-29T02:11:02;99103.38;;;10.59;100.00
34925;BME280;21130;51.728;8.748;2022-12-29T02:13:29;99087.28;;;10.67;100.00
34925;BME280;21130;51.728;8.748;2022-12-29T02:16:01;99090.03;;;10.67;100.00
34925;BME280;21130;51.728;8.748;2022-12-29T02:18:41;99073.38;;;10.72;100.00
34925;BME280;21130;51.728;8.748;2022-12-29T02:21:45;99087.81;;;10.74;100.00
34925;BME280;21130;51.728;8.748;2022-12-29T02:24:46;99089.47;;;10.75;100.00
34925;BME280;21130;51.728;8.748;2022-12-29T02:27:48;99091.16;;;10.76;100.00
34925;BME280;21130;51.728;8.748;2022-12-29T02:33:20;99092.22;;;10.80;100.00
34925;BME280;21130;51.728;8.748;2022-12-29T02:35:55;99101.09;;;10.82;100.00
34925;BME280;21130;51.728;8.748;2022-12-29T02:38:33;99093.59;;;10.82;100.00
34925;BME280;21130;51.728;8.748;2022-12-29T02:41:09;99073.94;;;10.74;100.00
34925;BME280;21130;51.728;8.748;2022-12-29T02:43:42;99083.34;;;10.73;100.00
34925;BME280;21130;51.728;8.748;2022-12-29T02:46:18;99091.69;;;10.68;100.00
34925;BME280;21130;51.728;8.748;2022-12-29T02:48:50;99105.31;;;10.64;100.00
34925;BME280;21130;51.728;8.748;2022-12-29T02:51:21;99098.06;;;10.63;100.00
34925;BME280;21130;51.728;8.748;2022-12-29T02:53:50;99086.44;;;10.61;100.00
34925;BME280;21130;51.728;8.748;2022-12-29T02:56:34;99093.66;;;10.62;100.00
34925;BME280;21130;51.728;8.748;2022-12-29T02:59:01;99090.88;;;10.62;100.00
34925;BME280;21130;51.728;8.748;2022-12-29T03:01:36;99090.88;;;10.62;100.00
34925;BME280;21130;51.728;8.748;2022-12-29T03:04:31;99071.19;;;10.64;100.00
34925;BME280;21130;51.728;8.748;2022-12-29T03:07:11;99067.84;;;10.67;100.00
34925;BME280;21130;51.728;8.748;2022-12-29T03:09:43;99058.94;;;10.70;100.00
34925;BME280;21130;51.728;8.748;2022-12-29T03:12:24;99053.69;;;10.73;100.00
34925;BME280;21130;51.728;8.748;2022-12-29T03:15:17;99035.34;;;10.77;100.00
34925;BME280;21130;51.728;8.748;2022-12-29T03:18:07;99047.28;;;10.78;100.00
34925;BME280;21130;51.728;8.748;2022-12-29T03:20:39;99037.84;;;10.79;100.00
34925;BME280;21130;51.728;8.748;2022-12-29T03:23:08;99038.69;;;10.74;100.00
34925;BME280;21130;51.728;8.748;2022-12-29T03:25:37;99044.50;;;10.78;100.00
34925;BME280;21130;51.728;8.748;2022-12-29T03:28:08;99035.91;;;10.74;100.00
34925;BME280;21130;51.728;8.748;2022-12-29T03:30:37;99026.44;;;10.80;100.00
34925;BME280;21130;51.728;8.748;2022-12-29T03:33:09;99025.06;;;10.83;100.00
34925;BME280;21130;51.728;8.748;2022-12-29T03:35:40;99031.16;;;10.85;100.00
34925;BME280;21130;51.728;8.748;2022-12-29T03:38:13;99032.53;;;10.88;100.00
34925;BME280;21130;51.728;8.748;2022-12-29T03:40:42;99030.31;;;10.90;100.00
34925;BME280;21130;51.728;8.748;2022-12-29T03:43:10;99031.97;;;10.91;100.00
34925;BME280;21130;51.728;8.748;2022-12-29T03:45:39;99035.03;;;10.89;100.00
34925;BME280;21130;51.728;8.748;2022-12-29T03:48:07;99024.75;;;10.90;100.00
34925;BME280;21130;51.728;8.748;2022-12-29T03:50:33;99025.59;;;10.90;100.00
34925;BME280;21130;51.728;8.748;2022-12-29T03:53:00;99035.56;;;10.96;100.00
34925;BME280;21130;51.728;8.748;2022-12-29T03:55:26;99005.06;;;10.91;100.00
34925;BME280;21130;51.728;8.748;2022-12-29T03:57:52;99016.16;;;10.91;100.00
34925;BME280;21130;51.728;8.748;2022-12-29T04:00:19;99014.75;;;10.94;100.00
34925;BME280;21130;51.728;8.748;2022-12-29T04:02:46;99016.13;;;10.96;100.00
34925;BME280;21130;51.728;8.748;2022-12-29T04:05:14;99009.19;;;10.99;100.00
34925;BME280;21130;51.728;8.748;2022-12-29T04:07:40;99003.91;;;10.97;100.00
34925;BME280;21130;51.728;8.748;2022-12-29T04:10:07;99003.63;;;10.99;100.00
34925;BME280;21130;51.728;8.748;2022-12-29T04:12:33;99012.78;;;10.99;100.00
34925;BME280;21130;51.728;8.748;2022-12-29T04:15:00;99005.00;;;11.01;100.00
34925;BME280;21130;51.728;8.748;2022-12-29T04:19:56;99010.25;;;11.03;100.00
34925;BME280;21130;51.728;8.748;2022-12-29T04:22:44;99004.47;;;10.94;100.00
34925;BME280;21130;51.728;8.748;2022-12-29T04:25:10;99010.06;;;10.89;100.00
34925;BME280;21130;51.728;8.748;2022-12-29T04:27:37;99009.22;;;10.89;100.00
34925;BME280;21130;51.728;8.748;2022-12-29T04:30:04;99001.72;;;10.89;100.00
34925;BME280;21130;51.728;8.748;2022-12-29T04:32:30;99001.72;;;10.89;100.00
34925;BME280;21130;51.728;8.748;2022-12-29T04:34:57;99010.06;;;10.84;100.00
34925;BME280;21130;51.728;8.748;2022-12-29T04:37:24;98999.81;;;10.79;100.00
34925;BME280;21130;51.728;8.748;2022-12-29T04:39:51;98987.59;;;10.80;100.00
34925;BME280;21130;51.728;8.748;2022-12-29T04:42:18;98999.53;;;10.86;100.00
34925;BME280;21130;51.728;8.748;2022-12-29T04:44:44;99001.19;;;10.82;100.00
34925;BME280;21130;51.728;8.748;2022-12-29T04:47:11;98987.59;;;10.80;100.00
34925;BME280;21130;51.728;8.748;2022-12-29T04:49:37;98992.06;;;10.81;100.00
34925;BME280;21130;51.728;8.748;2022-12-29T04:52:04;98991.22;;;10.81;100.00
34925;BME280;21130;51.728;8.748;2022-12-29T04:54:30;99002.03;;;10.82;100.00
34925;BME280;21130;51.728;8.748;2022-12-29T04:56:58;98992.84;;;10.87;100.00
34925;BME280;21130;51.728;8.748;2022-12-29T04:59:24;98980.13;;;10.81;100.00
34925;BME280;21130;51.728;8.748;2022-12-29T05:01:50;98976.25;;;10.72;100.00
34925;BME280;21130;51.728;8.748;2022-12-29T05:04:17;98991.25;;;10.76;100.00
34925;BME280;21130;51.728;8.748;2022-12-29T05:06:43;98994.53;;;10.78;100.00
34925;BME280;21130;51.728;8.748;2022-12-29T05:09:10;98982.34;;;10.79;100.00
34925;BME280;21130;51.728;8.748;2022-12-29T05:11:36;98989.53;;;10.80;100.00
34925;BME280;21130;51.728;8.748;2022-12-29T05:14:04;98982.91;;;10.81;100.00
34925;BME280;21130;51.728;8.748;2022-12-29T05:16:30;98980.66;;;10.83;100.00
34925;BME280;21130;51.728;8.748;2022-12-29T05:18:57;98970.44;;;10.73;100.00
34925;BME280;21130;51.728;8.748;2022-12-29T05:21:23;98972.94;;;10.70;100.00
34925;BME280;21130;51.728;8.748;2022-12-29T05:23:50;98965.44;;;10.70;100.00
34925;BME280;21130;51.728;8.748;2022-12-29T05:26:16;98959.63;;;10.67;100.00
34925;BME280;21130;51.728;8.748;2022-12-29T05:28:43;98951.00;;;10.68;100.00
34925;BME280;21130;51.728;8.748;2022-12-29T05:31:11;98969.06;;;10.66;100.00
34925;BME280;21130;51.728;8.748;2022-12-29T05:33:37;98962.44;;;10.62;100.00
34925;BME280;21130;51.728;8.748;2022-12-29T05:36:04;98964.09;;;10.63;100.00
34925;BME280;21130;51.728;8.748;2022-12-29T05:38:31;98971.31;;;10.64;100.00
34925;BME280;21130;51.728;8.748;2022-12-29T05:40:57;98962.13;;;10.63;100.00
34925;BME280;21130;51.728;8.748;2022-12-29T05:43:24;98978.78;;;10.63;100.00
34925;BME280;21130;51.728;8.748;2022-12-29T05:45:50;98974.63;;;10.60;100.00
34925;BME280;21130;51.728;8.748;2022-12-29T05:48:19;98969.34;;;10.64;100.00
34925;BME280;21130;51.728;8.748;2022-12-29T05:50:47;98961.84;;;10.70;100.00
34925;BME280;21130;51.728;8.748;2022-12-29T05:53:14;98956.84;;;10.72;100.00
34925;BME280;21130;51.728;8.748;2022-12-29T05:55:40;98966.53;;;10.74;100.00
34925;BME280;21130;51.728;8.748;2022-12-29T05:58:07;98967.34;;;10.80;100.00
34925;BME280;21130;51.728;8.748;2022-12-29T06:00:33;98965.66;;;10.89;100.00
34925;BME280;21130;51.728;8.748;2022-12-29T06:02:59;98962.31;;;10.87;100.00
34925;BME280;21130;51.728;8.748;2022-12-29T06:05:27;98969.75;;;11.02;100.00
34925;BME280;21130;51.728;8.748;2022-12-29T06:07:54;98962.25;;;11.02;100.00
34925;BME280;21130;51.728;8.748;2022-12-29T06:10:20;98977.50;;;11.05;100.00
34925;BME280;21130;51.728;8.748;2022-12-29T06:12:46;98958.59;;;11.12;100.00
34925;BME280;21130;51.728;8.748;2022-12-29T06:15:13;98966.34;;;11.15;100.00
34925;BME280;21130;51.728;8.748;2022-12-29T06:17:40;98957.75;;;11.12;100.00
34925;BME280;21130;51.728;8.748;2022-12-29T06:20:07;98994.94;;;11.11;100.00
34925;BME280;21130;51.728;8.748;2022-12-29T06:22:36;98965.50;;;11.15;100.00
34925;BME280;21130;51.728;8.748;2022-12-29T06:25:03;98971.03;;;11.20;100.00
34925;BME280;21130;51.728;8.748;2022-12-29T06:27:30;98986.00;;;11.24;100.00
34925;BME280;21130;51.728;8.748;2022-12-29T06:29:57;98989.63;;;11.24;100.00
34925;BME280;21130;51.728;8.748;2022-12-29T06:32:23;98987.41;;;11.21;100.00
34925;BME280;21130;51.728;8.748;2022-12-29T06:34:49;98996.56;;;11.22;100.00
34925;BME280;21130;51.728;8.748;2022-12-29T06:37:16;98975.97;;;11.28;100.00
34925;BME280;21130;51.728;8.748;2022-12-29T06:39:44;98969.03;;;11.25;100.00
34925;BME280;21130;51.728;8.748;2022-12-29T06:42:10;98977.09;;;11.27;100.00
34925;BME280;21130;51.728;8.748;2022-12-29T06:44:37;98974.31;;;11.27;100.00
34925;BME280;21130;51.728;8.748;2022-12-29T06:47:03;98978.75;;;11.28;100.00
34925;BME280;21130;51.728;8.748;2022-12-29T06:49:30;98992.13;;;11.26;100.00
34925;BME280;21130;51.728;8.748;2022-12-29T06:51:56;98977.66;;;11.29;100.00
34925;BME280;21130;51.728;8.748;2022-12-29T06:54:25;98991.00;;;11.27;100.00
34925;BME280;21130;51.728;8.748;2022-12-29T06:56:52;98986.03;;;11.19;100.00
34925;BME280;21130;51.728;8.748;2022-12-29T06:59:19;99002.72;;;11.14;100.00
34925;BME280;21130;51.728;8.748;2022-12-29T07:01:45;98994.44;;;11.09;100.00
34925;BME280;21130;51.728;8.748;2022-12-29T07:04:12;98996.91;;;11.10;100.00
34925;BME280;21130;51.728;8.748;2022-12-29T07:06:38;98991.69;;;11.03;100.00
34925;BME280;21130;51.728;8.748;2022-12-29T07:09:06;99007.50;;;10.98;100.00
34925;BME280;21130;51.728;8.748;2022-12-29T07:11:32;99000.00;;;11.03;100.00
34925;BME280;21130;51.728;8.748;2022-12-29T07:14:01;99004.44;;;11.05;100.00
34925;BME280;21130;51.728;8.748;2022-12-29T07:16:28;99013.63;;;11.00;100.00
34925;BME280;21130;51.728;8.748;2022-12-29T07:18:55;99006.72;;;10.92;100.00
34925;BME280;21130;51.728;8.748;2022-12-29T07:21:23;99006.72;;;10.87;100.00
34925;BME280;21130;51.728;8.748;2022-12-29T07:23:49;98995.38;;;10.84;100.00
34925;BME280;21130;51.728;8.748;2022-12-29T07:26:16;99001.19;;;10.82;100.00
34925;BME280;21130;51.728;8.748;2022-12-29T07:28:43;99015.06;;;10.82;100.00
34925;BME280;21130;51.728;8.748;2022-12-29T07:31:14;99021.72;;;10.86;100.00
34925;BME280;21130;51.728;8.748;2022-12-29T07:33:41;99029.50;;;10.89;100.00
34925;BME280;21130;51.728;8.748;2022-12-29T07:36:08;99027.81;;;10.88;100.00
34925;BME280;21130;51.728;8.748;2022-12-29T07:38:35;99030.63;;;10.78;100.00
34925;BME280;21130;51.728;8.748;2022-12-29T07:41:01;99033.94;;;10.80;100.00
34925;BME280;21130;51.728;8.748;2022-12-29T07:43:28;99030.91;;;10.76;100.00
34925;BME280;21130;51.728;8.748;2022-12-29T07:45:54;99042.56;;;10.78;100.00
34925;BME280;21130;51.728;8.748;2022-12-29T07:48:22;99038.69;;;10.79;100.00
34925;BME280;21130;51.728;8.748;2022-12-29T07:50:51;99036.44;;;10.87;100.00
34925;BME280;21130;51.728;8.748;2022-12-29T07:53:18;99036.13;;;10.88;100.00
34925;BME280;21130;51.728;8.748;2022-12-29T07:55:44;99036.16;;;10.83;100.00
34925;BME280;21130;51.728;8.748;2022-12-29T07:58:11;99050.03;;;10.83;100.00
34925;BME280;21130;51.728;8.748;2022-12-29T08:00:37;99050.91;;;10.73;100.00
34925;BME280;21130;51.728;8.748;2022-12-29T08:03:04;99060.34;;;10.72;100.00
34925;BME280;21130;51.728;8.748;2022-12-29T08:05:32;99069.78;;;10.71;100.00
34925;BME280;21130;51.728;8.748;2022-12-29T08:07:59;99075.88;;;10.68;100.00
34925;BME280;21130;51.728;8.748;2022-12-29T08:10:26;99078.13;;;10.61;100.00
34925;BME280;21130;51.728;8.748;2022-12-29T08:12:52;99094.50;;;10.57;100.00
34925;BME280;21130;51.728;8.748;2022-12-29T08:15:19;99106.72;;;10.56;100.00
34925;BME280;21130;51.728;8.748;2022-12-29T08:17:45;99103.13;;;10.51;100.00
34925;BME280;21130;51.728;8.748;2022-12-29T08:20:12;99097.56;;;10.35;100.00
34925;BME280;21130;51.728;8.748;2022-12-29T08:22:39;99102.81;;;10.22;100.00
34925;BME280;21130;51.728;8.748;2022-12-29T08:25:06;99099.75;;;10.13;100.00
34925;BME280;21130;51.728;8.748;2022-12-29T08:27:33;99108.34;;;10.11;100.00
34925;BME280;21130;51.728;8.748;2022-12-29T08:29:59;99100.59;;;10.08;100.00
34925;BME280;21130;51.728;8.748;2022-12-29T08:32:26;99107.78;;;9.99;100.00
34925;BME280;21130;51.728;8.748;2022-12-29T08:34:54;99113.31;;;9.94;100.00
34925;BME280;21130;51.728;8.748;2022-12-29T08:37:20;99111.13;;;9.96;100.00
34925;BME280;21130;51.728;8.748;2022-12-29T08:39:48;99122.19;;;9.96;100.00
34925;BME280;21130;51.728;8.748;2022-12-29T08:42:14;99124.97;;;9.91;100.00
34925;BME280;21130;51.728;8.748;2022-12-29T08:44:41;99128.81;;;9.90;100.00
34925;BME280;21130;51.728;8.748;2022-12-29T08:47:09;99106.94;;;9.83;100.00
34925;BME280;21130;51.728;8.748;2022-12-29T08:49:36;99112.16;;;9.69;100.00
34925;BME280;21130;51.728;8.748;2022-12-29T08:52:03;99122.09;;;9.65;100.00
34925;BME280;21130;51.728;8.748;2022-12-29T08:54:30;99134.56;;;9.63;100.00
34925;BME280;21130;51.728;8.748;2022-12-29T08:56:58;99129.00;;;9.58;100.00
34925;BME280;21130;51.728;8.748;2022-12-29T08:59:24;99138.69;;;9.55;100.00
34925;BME280;21130;51.728;8.748;2022-12-29T09:01:50;99134.84;;;9.56;100.00
34925;BME280;21130;51.728;8.748;2022-12-29T09:04:17;99133.16;;;9.55;100.00
34925;BME280;21130;51.728;8.748;2022-12-29T09:06:43;99129.56;;;9.55;100.00
34925;BME280;21130;51.728;8.748;2022-12-29T09:09:10;99131.22;;;9.50;100.00
34925;BME280;21130;51.728;8.748;2022-12-29T09:11:37;99119.28;;;9.50;100.00
34925;BME280;21130;51.728;8.748;2022-12-29T09:14:05;99135.94;;;9.60;100.00
34925;BME280;21130;51.728;8.748;2022-12-29T09:16:31;99139.03;;;9.64;100.00
34925;BME280;21130;51.728;8.748;2022-12-29T09:18:58;99147.59;;;9.62;100.00
34925;BME280;21130;51.728;8.748;2022-12-29T09:21:24;99139.28;;;9.62;100.00
34925;BME280;21130;51.728;8.748;2022-12-29T09:23:51;99135.97;;;9.65;100.00
34925;BME280;21130;51.728;8.748;2022-12-29T09:26:17;99140.78;;;10.11;100.00
34925;BME280;21130;51.728;8.748;2022-12-29T09:28:44;99137.47;;;10.65;100.00
34925;BME280;21130;51.728;8.748;2022-12-29T09:31:12;99142.69;;;11.02;100.00
34925;BME280;21130;51.728;8.748;2022-12-29T09:33:39;99158.00;;;10.85;100.00
34925;BME280;21130;51.728;8.748;2022-12-29T09:36:06;99153.88;;;10.46;100.00
34925;BME280;21130;51.728;8.748;2022-12-29T09:38:33;99145.22;;;10.27;100.00
34925;BME280;21130;51.728;8.748;2022-12-29T09:41:01;99155.19;;;10.13;100.00
34925;BME280;21130;51.728;8.748;2022-12-29T09:43:46;99146.88;;;10.13;100.00
34925;BME280;21130;51.728;8.748;2022-12-29T09:46:24;99157.69;;;10.20;100.00
34925;BME280;21130;51.728;8.748;2022-12-29T09:48:56;99159.38;;;10.26;100.00
34925;BME280;21130;51.728;8.748;2022-12-29T09:51:26;99164.09;;;10.30;100.00
34925;BME280;21130;51.728;8.748;2022-12-29T09:53:58;99146.34;;;10.82;100.00
34925;BME280;21130;51.728;8.748;2022-12-29T09:56:27;99144.75;;;11.57;100.00
34925;BME280;21130;51.728;8.748;2022-12-29T09:58:56;99127.75;;;12.13;100.00
34925;BME280;21130;51.728;8.748;2022-12-29T10:01:30;99144.59;;;12.32;100.00
34925;BME280;21130;51.728;8.748;2022-12-29T10:03:59;99143.25;;;12.88;100.00
34925;BME280;21130;51.728;8.748;2022-12-29T10:06:33;99145.66;;;12.70;100.00
34925;BME280;21130;51.728;8.748;2022-12-29T10:09:12;99142.97;;;11.76;100.00
34925;BME280;21130;51.728;8.748;2022-12-29T10:12:00;99152.00;;;11.48;100.00
34925;BME280;21130;51.728;8.748;2022-12-29T10:14:41;99149.06;;;11.08;100.00
34925;BME280;21130;51.728;8.748;2022-12-29T10:17:24;99169.91;;;10.90;100.00
34925;BME280;21130;51.728;8.748;2022-12-29T10:20:00;99174.38;;;10.66;100.00
34925;BME280;21130;51.728;8.748;2022-12-29T10:22:45;99189.84;;;10.21;100.00
34925;BME280;21130;51.728;8.748;2022-12-29T10:25:18;99204.16;;;9.71;100.00
34925;BME280;21130;51.728;8.748;2022-12-29T10:27:47;99205.75;;;9.09;100.00
34925;BME280;21130;51.728;8.748;2022-12-29T10:30:15;99210.47;;;8.72;100.00
34925;BME280;21130;51.728;8.748;2022-12-29T10:32:46;99202.44;;;8.38;100.00
34925;BME280;21130;51.728;8.748;2022-12-29T10:35:19;99208.25;;;8.14;100.00
34925;BME280;21130;51.728;8.748;2022-12-29T10:37:49;99223.09;;;8.03;100.00
34925;BME280;21130;51.728;8.748;2022-12-29T10:40:23;99219.09;;;7.94;100.00
34925;BME280;21130;51.728;8.748;2022-12-29T10:42:53;99202.78;;;7.92;100.00
34925;BME280;21130;51.728;8.748;2022-12-29T10:45:21;99187.34;;;7.96;100.00
34925;BME280;21130;51.728;8.748;2022-12-29T10:47:55;99201.84;;;8.36;100.00
34925;BME280;21130;51.728;8.748;2022-12-29T10:50:24;99207.88;;;8.60;100.00
34925;BME280;21130;51.728;8.748;2022-12-29T10:52:52;99195.19;;;9.01;100.00
34925;BME280;21130;51.728;8.748;2022-12-29T10:55:22;99189.28;;;9.35;100.00
34925;BME280;21130;51.728;8.748;2022-12-29T10:57:55;99188.88;;;9.64;100.00
34925;BME280;21130;51.728;8.748;2022-12-29T11:00:23;99192.34;;;10.12;100.00
34925;BME280;21130;51.728;8.748;2022-12-29T11:05:46;99171.59;;;10.55;100.00
34925;BME280;21130;51.728;8.748;2022-12-29T11:08:18;99182.13;;;10.38;100.00
34925;BME280;21130;51.728;8.748;2022-12-29T11:10:46;99179.38;;;10.43;100.00
34925;BME280;21130;51.728;8.748;2022-12-29T11:13:15;99182.13;;;10.33;100.00
34925;BME280;21130;51.728;8.748;2022-12-29T11:15:43;99189.22;;;9.93;100.00
34925;BME280;21130;51.728;8.748;2022-12-29T11:18:20;99172.03;;;9.81;100.00
34925;BME280;21130;51.728;8.748;2022-12-29T11:20:48;99184.19;;;9.74;100.00
34925;BME280;21130;51.728;8.748;2022-12-29T11:23:26;99180.81;;;9.62;100.00
34925;BME280;21130;51.728;8.748;2022-12-29T11:26:17;99183.25;;;9.43;100.00
34925;BME280;21130;51.728;8.748;2022-12-29T11:28:47;99187.97;;;9.48;100.00
34925;BME280;21130;51.728;8.748;2022-12-29T11:31:17;99193.03;;;9.61;100.00
34925;BME280;21130;51.728;8.748;2022-12-29T11:33:46;99188.59;;;9.65;100.00
34925;BME280;21130;51.728;8.748;2022-12-29T11:36:15;99197.22;;;9.69;100.00
34925;BME280;21130;51.728;8.748;2022-12-29T11:38:46;99191.94;;;9.67;100.00
34925;BME280;21130;51.728;8.748;2022-12-29T11:41:20;99183.13;;;9.76;100.00
34925;BME280;21130;51.728;8.748;2022-12-29T11:43:47;99193.91;;;9.77;100.00
34925;BME280;21130;51.728;8.748;2022-12-29T11:46:16;99194.19;;;9.76;100.00
34925;BME280;21130;51.728;8.748;2022-12-29T11:48:43;99198.38;;;9.78;100.00
34925;BME280;21130;51.728;8.748;2022-12-29T11:51:11;99193.94;;;9.87;100.00
34925;BME280;21130;51.728;8.748;2022-12-29T11:53:42;99209.19;;;9.90;100.00
34925;BME280;21130;51.728;8.748;2022-12-29T11:56:12;99205.31;;;9.86;100.00
34925;BME280;21130;51.728;8.748;2022-12-29T11:58:40;99198.66;;;9.92;100.00
34925;BME280;21130;51.728;8.748;2022-12-29T12:01:13;99206.69;;;9.83;100.00
34925;BME280;21130;51.728;8.748;2022-12-29T12:03:46;99214.47;;;9.91;100.00
34925;BME280;21130;51.728;8.748;2022-12-29T12:06:19;99199.22;;;9.94;100.00
34925;BME280;21130;51.728;8.748;2022-12-29T12:08:53;99195.63;;;9.93;100.00
34925;BME280;21130;51.728;8.748;2022-12-29T12:11:22;99192.88;;;9.93;100.00
34925;BME280;21130;51.728;8.748;2022-12-29T12:13:58;99183.97;;;9.86;100.00
34925;BME280;21130;51.728;8.748;2022-12-29T12:16:31;99208.63;;;9.93;100.00
34925;BME280;21130;51.728;8.748;2022-12-29T12:19:03;99206.97;;;9.87;100.00
34925;BME280;21130;51.728;8.748;2022-12-29T12:21:42;99211.41;;;9.93;100.00
34925;BME280;21130;51.728;8.748;2022-12-29T12:24:34;99220.81;;;9.87;100.00
34925;BME280;21130;51.728;8.748;2022-12-29T12:27:04;99206.44;;;9.95;100.00
34925;BME280;21130;51.728;8.748;2022-12-29T12:29:37;99210.31;;;9.89;100.00
34925;BME280;21130;51.728;8.748;2022-12-29T12:32:12;99217.50;;;9.90;100.00
34925;BME280;21130;51.728;8.748;2022-12-29T12:34:43;99221.97;;;9.91;100.00
34925;BME280;21130;51.728;8.748;2022-12-29T12:37:35;99209.19;;;9.95;100.00
34925;BME280;21130;51.728;8.748;2022-12-29T12:40:17;99214.47;;;9.91;100.00
34925;BME280;21130;51.728;8.748;2022-12-29T12:42:54;99222.50;;;9.93;100.00
34925;BME280;21130;51.728;8.748;2022-12-29T12:45:38;99222.78;;;9.97;100.00
34925;BME280;21130;51.728;8.748;2022-12-29T12:48:19;99235.81;;;9.96;100.00
34925;BME280;21130;51.728;8.748;2022-12-29T12:50:52;99235.03;;;10.01;100.00
34925;BME280;21130;51.728;8.748;2022-12-29T12:53:40;99232.50;;;9.99;100.00
34925;BME280;21130;51.728;8.748;2022-12-29T12:56:24;99228.59;;;9.95;100.00
34925;BME280;21130;51.728;8.748;2022-12-29T12:58:58;99239.69;;;10.00;100.00
34925;BME280;21130;51.728;8.748;2022-12-29T13:01:35;99236.94;;;10.00;100.00
34925;BME280;21130;51.728;8.748;2022-12-29T13:07:45;99244.16;;;10.01;100.00
34925;BME280;21130;51.728;8.748;2022-12-29T13:10:37;99255.25;;;10.01;100.00
34925;BME280;21130;51.728;8.748;2022-12-29T13:13:33;99263.56;;;10.01;100.00
34925;BME280;21130;51.728;8.748;2022-12-29T13:16:08;99255.50;;;10.00;100.00
34925;BME280;21130;51.728;8.748;2022-12-29T13:18:46;99270.47;;;9.99;100.00
34925;BME280;21130;51.728;8.748;2022-12-29T13:21:25;99262.72;;;10.01;100.00
34925;BME280;21130;51.728;8.748;2022-12-29T13:23:59;99281.81;;;9.97;100.00